Time;durP1;ratioP1;P1;durP2;ratioP2;P2;SDS_P1;SDS_P2;PMS_P1;PMS_P2;Temp;Humidity;BMP_temperature;BMP_pressure;BME280_temperature;BME280_humidity;BME280_pressure;Samples;Min_cycle;Max_cycle;Signal;HPM_P1;HPM_P2
2021/12/15 00:01:42;;;;;;;;;;;22.10;59.70;;;;;;4952558;28;19918;-75
2021/12/15 00:04:08;;;;;;;;;;;22.10;59.60;;;;;;4954665;29;19946;-74
2021/12/15 00:06:35;;;;;;;;;;;22.10;59.70;;;;;;4953143;29;19953;-74
2021/12/15 00:09:04;;;;;;;;;;;22.10;59.70;;;;;;4953959;29;19910;-75
2021/12/15 00:11:35;;;;;;;;;;;22.10;59.70;;;;;;4955138;29;19910;-74
2021/12/15 00:14:03;;;;;;;;;;;22.10;59.70;;;;;;4955070;29;20316;-75
2021/12/15 00:16:28;;;;;;;;;;;22.10;59.80;;;;;;4954204;29;19910;-75
2021/12/15 00:18:54;;;;;;;;;;;22.10;59.70;;;;;;4953451;28;19914;-74
2021/12/15 00:21:20;;;;;;;;;;;22.10;59.70;;;;;;4955109;28;19915;-75
2021/12/15 00:23:50;;;;;;;;;;;22.10;59.70;;;;;;4954521;29;19917;-74
2021/12/15 00:26:17;;;;;;;;;;;22.10;59.80;;;;;;4954009;28;19914;-74
2021/12/15 00:28:44;;;;;;;;;;;22.10;59.70;;;;;;4953466;28;20391;-74
2021/12/15 00:31:10;;;;;;;;;;;22.10;59.70;;;;;;4933684;29;20325;-76
2021/12/15 00:33:37;;;;;;;;;;;22.10;59.70;;;;;;4953991;29;20179;-73
2021/12/15 00:36:03;;;;;;;;;;;22.10;59.80;;;;;;4953072;29;19911;-74
2021/12/15 00:38:29;;;;;;;;;;;22.10;59.80;;;;;;4954021;28;20397;-75
2021/12/15 00:40:55;;;;;;;;;;;22.10;59.80;;;;;;4953665;29;20416;-74
2021/12/15 00:43:21;;;;;;;;;;;22.10;59.60;;;;;;4953722;28;20008;-75
2021/12/15 00:45:46;;;;;;;;;;;22.20;59.70;;;;;;4952265;28;20473;-75
2021/12/15 00:48:15;;;;;;;;;;;22.10;59.60;;;;;;4953016;29;19910;-75
2021/12/15 00:50:42;;;;;;;;;;;22.10;59.60;;;;;;4921705;29;19911;-75
2021/12/15 00:53:07;;;;;;;;;;;22.10;59.70;;;;;;4951478;28;19910;-75
2021/12/15 00:55:36;;;;;;;;;;;22.10;59.60;;;;;;4951846;29;19918;-76
2021/12/15 00:58:02;;;;;;;;;;;22.20;59.20;;;;;;4938317;29;19910;-74
2021/12/15 01:00:31;;;;;;;;;;;22.20;59.30;;;;;;4954342;29;19910;-75
2021/12/15 01:02:57;;;;;;;;;;;22.20;59.30;;;;;;4922697;29;19917;-75
2021/12/15 01:05:23;;;;;;;;;;;22.20;59.30;;;;;;4953993;29;19914;-75
2021/12/15 01:07:52;;;;;;;;;;;22.20;59.30;;;;;;4938290;29;19933;-75
2021/12/15 01:10:24;;;;;;;;;;;22.20;59.30;;;;;;4954237;29;19910;-74
2021/12/15 01:14:30;;;;;;;;;;;22.20;59.20;;;;;;4938152;29;20427;-75
2021/12/15 01:21:08;;;;;;;;;;;22.20;59.20;;;;;;4934728;29;19914;-75
2021/12/15 01:23:33;;;;;;;;;;;22.10;59.40;;;;;;4936017;29;19953;-75
2021/12/15 01:26:10;;;;;;;;;;;22.10;59.50;;;;;;4934210;29;20329;-75
2021/12/15 01:28:36;;;;;;;;;;;22.10;59.40;;;;;;4902968;29;19911;-73
2021/12/15 01:31:02;;;;;;;;;;;22.10;59.40;;;;;;4918923;29;19969;-73
2021/12/15 01:33:31;;;;;;;;;;;22.10;59.40;;;;;;4934380;29;19958;-73
2021/12/15 01:35:58;;;;;;;;;;;22.10;59.30;;;;;;4902904;29;19910;-73
2021/12/15 01:38:26;;;;;;;;;;;22.10;59.30;;;;;;4935554;29;20001;-72
2021/12/15 01:40:52;;;;;;;;;;;22.10;59.20;;;;;;4918598;29;19926;-73
2021/12/15 01:43:25;;;;;;;;;;;22.10;59.20;;;;;;4902889;29;20005;-72
2021/12/15 01:48:38;;;;;;;;;;;22.10;59.20;;;;;;4934195;29;19911;-74
2021/12/15 01:51:06;;;;;;;;;;;22.10;59.10;;;;;;4934131;29;19936;-74
2021/12/15 01:53:32;;;;;;;;;;;22.10;59.10;;;;;;4902509;29;19918;-74
2021/12/15 01:55:58;;;;;;;;;;;22.00;59.00;;;;;;4917892;29;20391;-74
2021/12/15 01:58:24;;;;;;;;;;;22.10;59.00;;;;;;4902437;29;20299;-74
2021/12/15 02:00:58;;;;;;;;;;;22.10;59.00;;;;;;4934076;29;19978;-74
2021/12/15 02:03:25;;;;;;;;;;;22.00;58.90;;;;;;4933998;29;19915;-75
2021/12/15 02:05:51;;;;;;;;;;;22.10;59.00;;;;;;4934277;29;20178;-75
2021/12/15 02:08:17;;;;;;;;;;;22.10;58.90;;;;;;4933937;29;20013;-74
2021/12/15 02:10:43;;;;;;;;;;;22.10;58.90;;;;;;4918322;29;20066;-75
2021/12/15 02:13:12;;;;;;;;;;;22.10;58.80;;;;;;4933693;29;19914;-74
2021/12/15 02:15:39;;;;;;;;;;;22.10;58.80;;;;;;4933569;29;19911;-74
2021/12/15 02:18:07;;;;;;;;;;;22.10;58.70;;;;;;4918173;29;20012;-74
2021/12/15 02:20:37;;;;;;;;;;;22.10;58.70;;;;;;4933716;29;20302;-74
2021/12/15 02:23:06;;;;;;;;;;;22.10;58.60;;;;;;4933461;29;20363;-74
2021/12/15 02:25:32;;;;;;;;;;;22.10;58.60;;;;;;4902176;29;19911;-74
2021/12/15 02:28:00;;;;;;;;;;;22.10;58.60;;;;;;4918066;29;19910;-74
2021/12/15 02:31:17;;;;;;;;;;;22.10;58.60;;;;;;4935018;29;20005;-74
2021/12/15 02:38:40;;;;;;;;;;;22.10;58.60;;;;;;4922013;29;19911;-74
2021/12/15 02:41:19;;;;;;;;;;;22.10;58.60;;;;;;4934128;29;19922;-74
2021/12/15 02:43:50;;;;;;;;;;;22.10;58.60;;;;;;4917712;29;19915;-74
2021/12/15 02:46:16;;;;;;;;;;;22.10;58.50;;;;;;4917521;29;19927;-75
2021/12/15 02:48:42;;;;;;;;;;;22.10;58.60;;;;;;4933333;29;20296;-74
2021/12/15 02:51:07;;;;;;;;;;;22.10;58.50;;;;;;4934580;29;19958;-75
2021/12/15 02:53:33;;;;;;;;;;;22.10;58.50;;;;;;4934430;29;19910;-74
2021/12/15 02:55:59;;;;;;;;;;;22.10;58.50;;;;;;4934104;29;20364;-74
2021/12/15 02:58:31;;;;;;;;;;;22.10;58.50;;;;;;4934354;29;19915;-74
2021/12/15 03:01:03;;;;;;;;;;;22.10;58.50;;;;;;4933345;29;20376;-74
2021/12/15 03:06:45;;;;;;;;;;;22.10;58.40;;;;;;4856836;29;19912;-74
2021/12/15 03:17:04;;;;;;;;;;;22.10;59.00;;;;;;4936638;29;19933;-74
2021/12/15 03:19:30;;;;;;;;;;;22.10;58.40;;;;;;4938250;29;20360;-74
2021/12/15 03:21:56;;;;;;;;;;;22.10;58.40;;;;;;4937953;29;19914;-74
2021/12/15 03:24:24;;;;;;;;;;;22.10;58.30;;;;;;4937758;29;19910;-75
2021/12/15 03:26:58;;;;;;;;;;;22.10;58.30;;;;;;4937043;29;20394;-74
2021/12/15 03:35:21;;;;;;;;;;;22.10;58.20;;;;;;4860070;29;19923;-74
2021/12/15 03:37:49;;;;;;;;;;;22.10;58.20;;;;;;4910580;29;19911;-74
2021/12/15 03:40:23;;;;;;;;;;;22.10;58.20;;;;;;4936538;29;19915;-74
2021/12/15 03:42:52;;;;;;;;;;;22.10;58.20;;;;;;4937654;29;20371;-75
2021/12/15 03:45:33;;;;;;;;;;;22.10;58.10;;;;;;4920141;29;19934;-74
2021/12/15 03:48:01;;;;;;;;;;;22.10;58.20;;;;;;4936469;29;19915;-74
2021/12/15 03:50:28;;;;;;;;;;;22.10;58.10;;;;;;4937522;29;19917;-74
2021/12/15 03:52:54;;;;;;;;;;;22.10;58.10;;;;;;4920497;29;20412;-74
2021/12/15 03:55:21;;;;;;;;;;;22.10;58.10;;;;;;4936017;29;19918;-74
2021/12/15 03:57:48;;;;;;;;;;;22.10;58.10;;;;;;4937561;29;19918;-74
2021/12/15 04:00:15;;;;;;;;;;;22.10;58.10;;;;;;4920368;29;19944;-75
2021/12/15 04:02:40;;;;;;;;;;;22.10;58.10;;;;;;4936152;29;19919;-74
2021/12/15 04:05:07;;;;;;;;;;;22.10;58.10;;;;;;4936893;29;19917;-74
2021/12/15 04:07:33;;;;;;;;;;;22.10;58.10;;;;;;4937163;29;19914;-73
2021/12/15 04:09:59;;;;;;;;;;;22.10;58.10;;;;;;4937091;29;19918;-74
2021/12/15 04:12:25;;;;;;;;;;;22.10;58.10;;;;;;4937300;29;19938;-74
2021/12/15 04:14:56;;;;;;;;;;;22.10;58.10;;;;;;4936576;29;19914;-74
2021/12/15 04:17:34;;;;;;;;;;;22.10;58.10;;;;;;4937012;29;19911;-75
2021/12/15 04:20:08;;;;;;;;;;;22.10;58.10;;;;;;4920109;29;19918;-74
2021/12/15 04:22:34;;;;;;;;;;;22.10;58.10;;;;;;4936961;29;19918;-74
2021/12/15 04:25:04;;;;;;;;;;;22.10;58.00;;;;;;4936599;29;19921;-74
2021/12/15 04:27:30;;;;;;;;;;;22.10;58.00;;;;;;4936564;29;20394;-75
2021/12/15 04:29:56;;;;;;;;;;;22.10;58.00;;;;;;4936802;29;19993;-74
2021/12/15 04:32:28;;;;;;;;;;;22.10;58.60;;;;;;4936896;29;19911;-74
2021/12/15 04:34:54;;;;;;;;;;;22.10;58.00;;;;;;4936467;29;19911;-74
2021/12/15 04:37:20;;;;;;;;;;;22.10;58.00;;;;;;4919821;29;20442;-74
2021/12/15 04:39:46;;;;;;;;;;;22.10;58.00;;;;;;4936583;29;19914;-74
2021/12/15 04:42:12;;;;;;;;;;;22.10;58.00;;;;;;4935451;29;19919;-74
2021/12/15 04:44:37;;;;;;;;;;;22.10;58.00;;;;;;4936211;29;19911;-74
2021/12/15 04:47:08;;;;;;;;;;;22.10;58.00;;;;;;4936626;29;20013;-74
2021/12/15 04:49:36;;;;;;;;;;;22.10;57.90;;;;;;4919568;29;19997;-74
2021/12/15 04:52:02;;;;;;;;;;;22.10;57.90;;;;;;4936540;29;19914;-74
2021/12/15 04:54:28;;;;;;;;;;;22.10;57.90;;;;;;4919355;29;19911;-75
2021/12/15 04:56:54;;;;;;;;;;;22.10;57.90;;;;;;4936381;29;19918;-74
2021/12/15 04:59:20;;;;;;;;;;;22.20;58.00;;;;;;4936337;29;19911;-74
2021/12/15 05:01:46;;;;;;;;;;;22.10;58.20;;;;;;4936197;29;20668;-74
2021/12/15 05:04:12;;;;;;;;;;;22.10;57.90;;;;;;4919250;29;19915;-74
2021/12/15 05:06:39;;;;;;;;;;;22.10;57.90;;;;;;4936219;29;20343;-74
2021/12/15 05:09:06;;;;;;;;;;;22.10;57.90;;;;;;4919264;29;19960;-74
2021/12/15 05:11:31;;;;;;;;;;;22.10;57.90;;;;;;4903544;29;20351;-74
2021/12/15 05:13:57;;;;;;;;;;;22.10;58.50;;;;;;4936131;29;19998;-74
2021/12/15 05:16:23;;;;;;;;;;;22.10;57.90;;;;;;4935694;29;19911;-74
2021/12/15 05:18:49;;;;;;;;;;;22.10;57.90;;;;;;4934579;29;19921;-74
2021/12/15 05:21:15;;;;;;;;;;;22.10;57.90;;;;;;4935741;29;19915;-73
2021/12/15 05:23:44;;;;;;;;;;;22.10;57.90;;;;;;4935923;29;19922;-74
2021/12/15 05:26:10;;;;;;;;;;;22.10;57.90;;;;;;4918521;29;19910;-74
2021/12/15 05:28:36;;;;;;;;;;;22.10;57.90;;;;;;4935528;29;19915;-74
2021/12/15 05:31:02;;;;;;;;;;;22.10;57.90;;;;;;4935778;29;20465;-74
2021/12/15 05:33:28;;;;;;;;;;;22.10;57.90;;;;;;4919180;29;19994;-74
2021/12/15 05:35:55;;;;;;;;;;;22.10;57.80;;;;;;4918394;29;19911;-74
2021/12/15 05:38:22;;;;;;;;;;;22.10;57.80;;;;;;4935579;29;19958;-74
2021/12/15 05:40:48;;;;;;;;;;;22.10;57.90;;;;;;4917441;29;19911;-74
2021/12/15 05:43:13;;;;;;;;;;;22.10;57.90;;;;;;4934950;29;19911;-74
2021/12/15 05:45:41;;;;;;;;;;;22.10;57.90;;;;;;4935223;29;20390;-74
2021/12/15 05:48:08;;;;;;;;;;;22.10;57.90;;;;;;4935375;29;19917;-74
2021/12/15 05:50:34;;;;;;;;;;;22.10;57.90;;;;;;4935294;29;19921;-74
2021/12/15 05:53:01;;;;;;;;;;;22.10;57.90;;;;;;4935416;29;19910;-74
2021/12/15 05:55:28;;;;;;;;;;;22.10;58.40;;;;;;4935059;29;19917;-73
2021/12/15 05:57:53;;;;;;;;;;;22.10;57.80;;;;;;4935322;29;20013;-74
2021/12/15 06:00:21;;;;;;;;;;;22.10;57.70;;;;;;4935269;29;19942;-74
2021/12/15 06:02:47;;;;;;;;;;;22.10;57.70;;;;;;4935147;29;20013;-73
2021/12/15 06:05:13;;;;;;;;;;;22.10;57.70;;;;;;4917935;29;20073;-73
2021/12/15 06:07:40;;;;;;;;;;;22.10;57.60;;;;;;4933833;29;19911;-74
2021/12/15 06:10:07;;;;;;;;;;;22.10;57.60;;;;;;4933936;29;19950;-74
2021/12/15 06:12:33;;;;;;;;;;;22.10;58.20;;;;;;4934891;29;19922;-74
2021/12/15 06:14:58;;;;;;;;;;;22.10;57.60;;;;;;4934758;29;19911;-74
2021/12/15 06:17:26;;;;;;;;;;;22.10;57.60;;;;;;4935240;29;19911;-74
2021/12/15 06:19:52;;;;;;;;;;;22.10;57.60;;;;;;4934910;29;19915;-74
2021/12/15 06:22:24;;;;;;;;;;;22.10;57.60;;;;;;4934665;29;19915;-74
2021/12/15 06:24:50;;;;;;;;;;;22.10;57.60;;;;;;4917466;29;19966;-74
2021/12/15 06:27:16;;;;;;;;;;;22.10;57.60;;;;;;4934668;29;19914;-74
2021/12/15 06:29:42;;;;;;;;;;;22.10;57.60;;;;;;4934676;29;20291;-74
2021/12/15 06:32:08;;;;;;;;;;;22.10;57.50;;;;;;4933710;29;19911;-74
2021/12/15 06:34:34;;;;;;;;;;;22.10;57.50;;;;;;4918012;29;19910;-75
2021/12/15 06:37:00;;;;;;;;;;;22.10;57.50;;;;;;4933450;29;19914;-75
2021/12/15 06:39:26;;;;;;;;;;;22.10;57.60;;;;;;4933436;29;19921;-74
2021/12/15 06:41:51;;;;;;;;;;;22.10;57.60;;;;;;4934394;29;20291;-74
2021/12/15 06:44:17;;;;;;;;;;;22.10;57.60;;;;;;4934404;29;19911;-74
2021/12/15 06:47:14;;;;;;;;;;;22.10;57.50;;;;;;4934360;29;19910;-74
2021/12/15 07:00:27;;;;;;;;;;;22.10;57.50;;;;;;4934620;29;20259;-74
2021/12/15 07:02:53;;;;;;;;;;;22.10;57.50;;;;;;4934361;29;20320;-74
2021/12/15 07:05:20;;;;;;;;;;;22.10;57.50;;;;;;4934155;29;20061;-74
2021/12/15 07:07:47;;;;;;;;;;;22.10;57.50;;;;;;4917411;29;20017;-74
2021/12/15 07:10:14;;;;;;;;;;;22.10;57.40;;;;;;4934524;29;19919;-74
2021/12/15 07:12:40;;;;;;;;;;;22.10;57.40;;;;;;4934042;29;19911;-74
2021/12/15 07:15:06;;;;;;;;;;;22.10;57.40;;;;;;4934143;29;20413;-74
2021/12/15 07:17:32;;;;;;;;;;;22.10;57.30;;;;;;4934358;29;19921;-74
2021/12/15 07:24:56;;;;;;;;;;;22.10;57.30;;;;;;4933988;29;19997;-74
2021/12/15 07:27:22;;;;;;;;;;;22.10;57.20;;;;;;4933938;29;19967;-75
2021/12/15 07:29:47;;;;;;;;;;;22.10;57.20;;;;;;4933162;29;19946;-74
2021/12/15 07:32:13;;;;;;;;;;;22.10;57.20;;;;;;4934161;29;19914;-74
2021/12/15 07:34:39;;;;;;;;;;;22.10;57.20;;;;;;4934084;29;19918;-74
2021/12/15 07:37:05;;;;;;;;;;;22.10;57.20;;;;;;4934060;29;20323;-74
2021/12/15 07:39:31;;;;;;;;;;;22.10;57.80;;;;;;4932952;29;20005;-74
2021/12/15 07:42:09;;;;;;;;;;;22.10;57.20;;;;;;4933676;29;19915;-74
2021/12/15 07:44:35;;;;;;;;;;;22.10;57.20;;;;;;4933664;29;19917;-75
2021/12/15 07:47:01;;;;;;;;;;;22.10;57.20;;;;;;4933979;29;19911;-74
2021/12/15 07:49:27;;;;;;;;;;;22.10;57.20;;;;;;4933974;29;20380;-74
2021/12/15 07:51:59;;;;;;;;;;;22.10;57.20;;;;;;4933967;29;19911;-74
2021/12/15 07:54:26;;;;;;;;;;;22.10;57.20;;;;;;4933707;29;19914;-74
2021/12/15 07:56:51;;;;;;;;;;;22.10;57.20;;;;;;4933912;29;19917;-74
2021/12/15 07:59:17;;;;;;;;;;;22.10;57.80;;;;;;4933816;29;19910;-74
2021/12/15 08:01:43;;;;;;;;;;;22.20;57.30;;;;;;4933764;29;20256;-74
2021/12/15 08:04:09;;;;;;;;;;;22.20;58.10;;;;;;4936181;29;19961;-74
2021/12/15 08:06:35;;;;;;;;;;;22.20;59.10;;;;;;4920089;29;19953;-74
2021/12/15 08:09:01;;;;;;;;;;;22.20;59.40;;;;;;4936137;29;20005;-74
2021/12/15 08:11:27;;;;;;;;;;;22.20;59.70;;;;;;4904636;29;19918;-74
2021/12/15 08:13:52;;;;;;;;;;;22.20;58.20;;;;;;4937104;29;19911;-74
2021/12/15 08:16:19;;;;;;;;;;;22.20;57.90;;;;;;4937057;29;19911;-74
2021/12/15 08:18:45;;;;;;;;;;;22.30;58.60;;;;;;4934441;29;20375;-74
2021/12/15 08:21:11;;;;;;;;;;;22.30;59.20;;;;;;4937061;29;19915;-74
2021/12/15 08:23:37;;;;;;;;;;;22.40;59.30;;;;;;4936685;29;19918;-74
2021/12/15 08:26:03;;;;;;;;;;;22.40;60.70;;;;;;4919553;29;19965;-74
2021/12/15 08:28:29;;;;;;;;;;;22.40;60.50;;;;;;4919743;29;19963;-75
2021/12/15 08:30:55;;;;;;;;;;;22.40;59.70;;;;;;4904102;29;19965;-74
2021/12/15 08:33:22;;;;;;;;;;;22.40;60.70;;;;;;4936880;29;19965;-80
2021/12/15 08:36:06;;;;;;;;;;;22.40;60.40;;;;;;4936893;29;20464;-79
2021/12/15 08:38:33;;;;;;;;;;;22.10;55.20;;;;;;4936745;29;20490;-79
2021/12/15 08:41:02;;;;;;;;;;;21.70;51.50;;;;;;4936137;29;19965;-79
2021/12/15 08:43:28;;;;;;;;;;;21.50;50.20;;;;;;4936647;29;19993;-79
2021/12/15 08:45:58;;;;;;;;;;;21.20;50.50;;;;;;4935378;29;20264;-80
2021/12/15 08:48:24;;;;;;;;;;;21.10;51.00;;;;;;4936261;29;19933;-79
2021/12/15 08:50:50;;;;;;;;;;;21.00;50.00;;;;;;4936875;29;20411;-75
2021/12/15 08:53:16;;;;;;;;;;;20.90;50.30;;;;;;4936705;29;20005;-74
2021/12/15 08:55:44;;;;;;;;;;;21.00;50.70;;;;;;4936170;29;19957;-74
2021/12/15 08:58:12;;;;;;;;;;;21.20;52.10;;;;;;4936355;29;19911;-74
2021/12/15 09:00:43;;;;;;;;;;;21.40;52.10;;;;;;4919543;29;20343;-74
2021/12/15 09:03:10;;;;;;;;;;;21.50;52.20;;;;;;4936177;29;19954;-74
2021/12/15 09:05:36;;;;;;;;;;;21.60;52.30;;;;;;4935937;29;19983;-74
2021/12/15 09:08:01;;;;;;;;;;;21.60;52.00;;;;;;4936158;29;19914;-74
2021/12/15 09:10:29;;;;;;;;;;;21.60;52.00;;;;;;4936276;29;19966;-74
2021/12/15 09:12:55;;;;;;;;;;;21.70;52.70;;;;;;4936502;29;20323;-75
2021/12/15 09:15:21;;;;;;;;;;;21.80;52.20;;;;;;4935519;29;20276;-74
2021/12/15 09:17:47;;;;;;;;;;;21.80;52.00;;;;;;4935814;29;19985;-75
2021/12/15 09:20:15;;;;;;;;;;;21.80;52.20;;;;;;4919089;29;19933;-75
2021/12/15 09:22:41;;;;;;;;;;;21.80;52.20;;;;;;4935901;29;20354;-75
2021/12/15 09:25:08;;;;;;;;;;;21.80;52.30;;;;;;4935596;29;19953;-75
2021/12/15 09:27:35;;;;;;;;;;;21.90;52.40;;;;;;4935925;29;20001;-75
2021/12/15 09:30:01;;;;;;;;;;;21.90;52.60;;;;;;4935670;29;19910;-75
2021/12/15 09:32:27;;;;;;;;;;;21.90;52.60;;;;;;4903214;29;20381;-75
2021/12/15 09:34:54;;;;;;;;;;;21.90;52.70;;;;;;4935413;29;19917;-75
2021/12/15 09:37:19;;;;;;;;;;;21.90;52.80;;;;;;4935760;29;19918;-75
2021/12/15 09:39:45;;;;;;;;;;;21.90;52.80;;;;;;4935747;29;19919;-75
2021/12/15 09:42:16;;;;;;;;;;;22.00;52.90;;;;;;4918549;29;19918;-74
2021/12/15 09:44:43;;;;;;;;;;;21.90;52.90;;;;;;4935167;29;20003;-75
2021/12/15 09:47:21;;;;;;;;;;;22.00;53.00;;;;;;4935483;29;19955;-75
2021/12/15 10:03:49;;;;;;;;;;;22.00;53.30;;;;;;4935134;29;19923;-75
2021/12/15 10:19:39;;;;;;;;;;;22.00;53.80;;;;;;4935244;29;20378;-75
2021/12/15 10:22:16;;;;;;;;;;;22.00;53.90;;;;;;4934861;29;20395;-75
2021/12/15 10:24:48;;;;;;;;;;;22.00;54.00;;;;;;4934777;29;19918;-74
2021/12/15 10:27:16;;;;;;;;;;;22.00;53.90;;;;;;4934431;29;19915;-75
2021/12/15 10:29:59;;;;;;;;;;;22.00;54.10;;;;;;4934751;29;19945;-75
2021/12/15 10:32:33;;;;;;;;;;;22.00;54.10;;;;;;4934810;29;19923;-75
2021/12/15 10:35:07;;;;;;;;;;;22.00;54.10;;;;;;4934331;29;19954;-75
2021/12/15 10:37:32;;;;;;;;;;;22.00;54.10;;;;;;4917751;29;20291;-74
2021/12/15 10:40:09;;;;;;;;;;;22.10;54.20;;;;;;4934677;29;19911;-74
2021/12/15 10:42:38;;;;;;;;;;;22.10;54.30;;;;;;4917457;29;20331;-75
2021/12/15 10:45:05;;;;;;;;;;;22.10;54.30;;;;;;4933073;29;19918;-75
2021/12/15 10:47:38;;;;;;;;;;;22.00;54.30;;;;;;4933501;29;19914;-75
2021/12/15 10:50:04;;;;;;;;;;;22.10;54.40;;;;;;4934780;29;19910;-75
2021/12/15 10:52:32;;;;;;;;;;;22.00;54.40;;;;;;4934726;29;19911;-74
2021/12/15 10:55:03;;;;;;;;;;;22.00;54.40;;;;;;4934242;29;19927;-74
2021/12/15 10:57:30;;;;;;;;;;;22.00;54.50;;;;;;4935025;29;19910;-75
2021/12/15 10:59:56;;;;;;;;;;;22.00;54.50;;;;;;4934301;29;20100;-75
2021/12/15 11:02:24;;;;;;;;;;;22.00;54.50;;;;;;4934315;29;19950;-75
2021/12/15 11:04:52;;;;;;;;;;;22.00;54.50;;;;;;4934165;29;19957;-75
2021/12/15 11:07:20;;;;;;;;;;;22.00;54.50;;;;;;4933408;29;19933;-74
2021/12/15 11:09:48;;;;;;;;;;;22.10;54.50;;;;;;4934519;29;19914;-74
2021/12/15 11:12:19;;;;;;;;;;;22.10;54.50;;;;;;4934162;29;19911;-75
2021/12/15 11:14:56;;;;;;;;;;;22.10;54.60;;;;;;4934156;29;19911;-74
2021/12/15 11:17:23;;;;;;;;;;;22.10;54.60;;;;;;4933043;29;19910;-75
2021/12/15 11:20:01;;;;;;;;;;;22.10;54.60;;;;;;4933253;29;20398;-74
2021/12/15 11:22:35;;;;;;;;;;;22.10;54.70;;;;;;4934048;29;20058;-75
2021/12/15 11:25:01;;;;;;;;;;;22.10;54.70;;;;;;4933809;29;19923;-75
2021/12/15 11:27:27;;;;;;;;;;;22.10;54.80;;;;;;4917393;29;19911;-74
2021/12/15 11:29:53;;;;;;;;;;;22.10;54.70;;;;;;4934226;29;19918;-75
2021/12/15 11:32:37;;;;;;;;;;;22.10;54.80;;;;;;4932909;29;20438;-75
2021/12/15 11:35:11;;;;;;;;;;;22.10;54.70;;;;;;4933947;29;19911;-75
2021/12/15 11:37:46;;;;;;;;;;;22.10;54.80;;;;;;4934155;29;19911;-75
2021/12/15 11:40:12;;;;;;;;;;;22.10;54.90;;;;;;4936777;29;19917;-75
2021/12/15 11:42:39;;;;;;;;;;;22.10;54.80;;;;;;4937548;29;19915;-75
2021/12/15 11:45:06;;;;;;;;;;;22.10;54.90;;;;;;4936265;29;19910;-75
2021/12/15 11:47:33;;;;;;;;;;;22.10;54.90;;;;;;4937603;29;20326;-75
2021/12/15 11:50:06;;;;;;;;;;;22.10;54.90;;;;;;4920794;29;19949;-75
2021/12/15 11:52:40;;;;;;;;;;;22.10;54.90;;;;;;4937870;29;19918;-75
2021/12/15 11:55:07;;;;;;;;;;;22.10;55.50;;;;;;4937281;29;20005;-75
2021/12/15 11:57:33;;;;;;;;;;;22.10;55.00;;;;;;4936398;29;19911;-75
2021/12/15 12:00:04;;;;;;;;;;;22.10;55.00;;;;;;4937472;29;19911;-75
2021/12/15 12:02:40;;;;;;;;;;;22.10;55.00;;;;;;4937333;29;20015;-75
2021/12/15 12:05:11;;;;;;;;;;;22.10;55.10;;;;;;4935982;29;19914;-74
2021/12/15 12:07:44;;;;;;;;;;;22.10;55.00;;;;;;4937605;29;19911;-75
2021/12/15 12:10:30;;;;;;;;;;;22.10;55.00;;;;;;4937350;29;19910;-74
2021/12/15 12:13:09;;;;;;;;;;;22.10;55.10;;;;;;4936181;29;19918;-74
2021/12/15 12:15:36;;;;;;;;;;;22.10;55.00;;;;;;4920131;29;19910;-75
2021/12/15 12:18:09;;;;;;;;;;;22.10;55.10;;;;;;4936954;29;19998;-74
2021/12/15 12:20:40;;;;;;;;;;;22.10;55.10;;;;;;4937330;29;19997;-74
2021/12/15 12:23:08;;;;;;;;;;;22.10;55.10;;;;;;4936799;29;19922;-75
2021/12/15 12:25:37;;;;;;;;;;;22.10;55.10;;;;;;4936773;29;19910;-75
2021/12/15 12:28:04;;;;;;;;;;;22.10;55.10;;;;;;4936851;29;19997;-75
2021/12/15 12:30:30;;;;;;;;;;;22.20;55.20;;;;;;4936940;29;19949;-75
2021/12/15 12:32:56;;;;;;;;;;;22.10;55.20;;;;;;4936929;29;19962;-75
2021/12/15 12:35:23;;;;;;;;;;;22.20;55.20;;;;;;4936473;29;19999;-74
2021/12/15 12:37:50;;;;;;;;;;;22.10;55.20;;;;;;4936644;29;20435;-74
2021/12/15 12:40:18;;;;;;;;;;;22.10;55.10;;;;;;4919476;29;20375;-75
2021/12/15 12:42:44;;;;;;;;;;;22.20;55.30;;;;;;4936489;29;20010;-75
2021/12/15 12:45:33;;;;;;;;;;;22.20;55.30;;;;;;4936297;29;20029;-74
2021/12/15 12:59:30;;;;;;;;;;;22.10;55.30;;;;;;4936352;29;20363;-74
2021/12/15 13:01:56;;;;;;;;;;;22.20;55.40;;;;;;4936394;29;19918;-75
2021/12/15 13:04:22;;;;;;;;;;;22.10;55.30;;;;;;4935903;29;19911;-75
2021/12/15 13:06:48;;;;;;;;;;;22.20;55.40;;;;;;4936245;29;19934;-75
2021/12/15 13:09:16;;;;;;;;;;;22.10;55.30;;;;;;4936251;29;19911;-75
2021/12/15 13:11:46;;;;;;;;;;;22.20;55.50;;;;;;4936041;29;20311;-75
2021/12/15 13:14:19;;;;;;;;;;;22.20;56.90;;;;;;4936045;29;19915;-75
2021/12/15 13:16:56;;;;;;;;;;;22.20;56.30;;;;;;4936194;29;19973;-75
2021/12/15 13:19:33;;;;;;;;;;;22.20;56.20;;;;;;5038320;23;19953;-79
2021/12/15 13:30:39;;;;;;;;;;;22.20;57.20;;;;;;4922691;29;19910;-79
2021/12/15 13:33:12;;;;;;;;;;;22.30;57.90;;;;;;4955069;28;20286;-78
2021/12/15 13:35:41;;;;;;;;;;;22.30;59.00;;;;;;4938851;29;19957;-78
2021/12/15 13:38:07;;;;;;;;;;;22.30;58.60;;;;;;4938162;29;19910;-78
2021/12/15 13:40:53;;;;;;;;;;;22.30;60.00;;;;;;4955322;29;19910;-78
2021/12/15 13:43:37;;;;;;;;;;;22.40;59.60;;;;;;4955175;28;19915;-78
2021/12/15 13:46:04;;;;;;;;;;;22.40;57.70;;;;;;4954920;29;19914;-78
2021/12/15 13:48:48;;;;;;;;;;;22.40;61.40;;;;;;4955296;28;19945;-78
2021/12/15 13:51:14;;;;;;;;;;;22.40;61.20;;;;;;4937645;29;19917;-78
2021/12/15 13:53:40;;;;;;;;;;;22.40;62.00;;;;;;4954320;28;19910;-78
2021/12/15 13:56:06;;;;;;;;;;;22.40;61.20;;;;;;4937213;29;19910;-78
2021/12/15 13:58:44;;;;;;;;;;;22.40;60.40;;;;;;4955411;29;20186;-77
2021/12/15 14:01:11;;;;;;;;;;;22.40;59.00;;;;;;4953059;28;19911;-78
2021/12/15 14:03:43;;;;;;;;;;;22.40;58.80;;;;;;4937981;29;19965;-78
2021/12/15 14:06:11;;;;;;;;;;;22.40;59.60;;;;;;4921505;29;19910;-78
2021/12/15 14:08:37;;;;;;;;;;;22.40;59.20;;;;;;4937667;29;19914;-79
2021/12/15 14:11:16;;;;;;;;;;;22.40;58.80;;;;;;4921553;29;19917;-80
2021/12/15 14:13:44;;;;;;;;;;;22.40;59.30;;;;;;4934441;29;19911;-80
2021/12/15 14:16:11;;;;;;;;;;;22.40;59.10;;;;;;4934127;29;19962;-79
2021/12/15 14:18:37;;;;;;;;;;;22.40;59.00;;;;;;4902336;29;19911;-81
2021/12/15 14:21:05;;;;;;;;;;;22.40;58.40;;;;;;4935548;29;20005;-80
2021/12/15 14:23:31;;;;;;;;;;;22.40;58.10;;;;;;4918548;29;19958;-78
2021/12/15 14:25:57;;;;;;;;;;;22.30;58.40;;;;;;4934994;29;19961;-78
2021/12/15 14:28:25;;;;;;;;;;;22.30;58.20;;;;;;4935578;29;19922;-79
2021/12/15 14:30:53;;;;;;;;;;;22.30;57.80;;;;;;4937301;29;20003;-78
2021/12/15 14:33:21;;;;;;;;;;;22.30;57.60;;;;;;4954104;28;19911;-77
2021/12/15 14:35:47;;;;;;;;;;;22.30;57.50;;;;;;4954206;29;19911;-77
2021/12/15 14:38:13;;;;;;;;;;;22.30;57.50;;;;;;4954374;29;19910;-77
2021/12/15 14:40:38;;;;;;;;;;;22.30;57.60;;;;;;4954104;29;19910;-76
2021/12/15 14:43:04;;;;;;;;;;;22.30;57.60;;;;;;4953992;29;19921;-77
2021/12/15 14:45:29;;;;;;;;;;;22.30;57.60;;;;;;4953958;29;19973;-76
2021/12/15 14:47:55;;;;;;;;;;;22.30;57.60;;;;;;4937073;29;19910;-77
2021/12/15 14:50:21;;;;;;;;;;;22.30;57.50;;;;;;4954043;28;19910;-77
2021/12/15 14:52:48;;;;;;;;;;;22.30;57.60;;;;;;4954141;29;19917;-77
2021/12/15 14:55:19;;;;;;;;;;;22.30;57.50;;;;;;4953891;28;19914;-77
2021/12/15 14:57:45;;;;;;;;;;;22.30;57.50;;;;;;4954541;28;19957;-76
2021/12/15 15:00:19;;;;;;;;;;;22.30;57.50;;;;;;4954351;28;19914;-77
2021/12/15 15:02:48;;;;;;;;;;;22.30;58.10;;;;;;4937382;29;19914;-76
2021/12/15 15:05:17;;;;;;;;;;;22.30;57.50;;;;;;4937123;29;19969;-76
2021/12/15 15:07:45;;;;;;;;;;;22.30;57.50;;;;;;4937050;29;19914;-77
2021/12/15 15:10:12;;;;;;;;;;;22.30;57.50;;;;;;4953833;28;19957;-77
2021/12/15 15:12:39;;;;;;;;;;;22.30;57.60;;;;;;4955636;28;19918;-77
2021/12/15 15:15:13;;;;;;;;;;;22.30;57.60;;;;;;4957481;28;19914;-77
2021/12/15 15:17:51;;;;;;;;;;;22.30;57.60;;;;;;4937658;29;19918;-77
2021/12/15 15:20:16;;;;;;;;;;;22.30;57.60;;;;;;4940748;29;19952;-76
2021/12/15 15:22:43;;;;;;;;;;;22.30;57.70;;;;;;4940556;29;19970;-75
2021/12/15 15:25:10;;;;;;;;;;;22.30;57.70;;;;;;4957357;29;20351;-75
2021/12/15 15:27:40;;;;;;;;;;;22.30;57.70;;;;;;4940314;29;19911;-75
2021/12/15 15:30:10;;;;;;;;;;;22.30;57.70;;;;;;4957178;29;20005;-75
2021/12/15 15:32:36;;;;;;;;;;;22.30;57.70;;;;;;4954199;28;20460;-77
2021/12/15 15:35:21;;;;;;;;;;;22.30;57.70;;;;;;4976286;28;19921;-78
2021/12/15 15:37:50;;;;;;;;;;;22.30;57.80;;;;;;4976537;28;19956;-77
2021/12/15 15:40:34;;;;;;;;;;;22.30;57.70;;;;;;4955502;28;20365;-78
2021/12/15 15:43:19;;;;;;;;;;;22.30;57.80;;;;;;4957271;28;19918;-78
2021/12/15 15:45:54;;;;;;;;;;;22.30;57.70;;;;;;4976205;28;19910;-78
2021/12/15 15:48:28;;;;;;;;;;;22.30;57.80;;;;;;4975078;28;19961;-79
2021/12/15 15:50:59;;;;;;;;;;;22.30;57.70;;;;;;4943422;28;19913;-79
2021/12/15 15:53:25;;;;;;;;;;;22.30;57.80;;;;;;4959474;28;20259;-79
2021/12/15 15:55:55;;;;;;;;;;;22.30;57.80;;;;;;4976000;28;19937;-80
2021/12/15 15:58:25;;;;;;;;;;;22.30;57.70;;;;;;4965245;28;20371;-80